createdAt,value
2023-06-11T00:01:28.125Z,41.20
2023-06-11T00:03:55.318Z,40.98
2023-06-11T00:06:24.239Z,40.79
2023-06-11T00:08:53.273Z,40.86
2023-06-11T00:11:21.302Z,40.74
2023-06-11T00:13:48.554Z,40.85
2023-06-11T00:16:16.350Z,40.68
2023-06-11T00:18:44.081Z,40.53
2023-06-11T00:21:12.469Z,40.40
2023-06-11T00:23:39.838Z,40.36
2023-06-11T00:26:08.819Z,40.30
2023-06-11T00:28:36.113Z,40.27
2023-06-11T00:31:06.762Z,40.18
2023-06-11T00:33:33.702Z,40.30
2023-06-11T00:36:00.584Z,40.32
2023-06-11T00:38:27.444Z,40.16
2023-06-11T00:40:54.294Z,40.19
2023-06-11T00:43:24.158Z,40.07
2023-06-11T00:45:55.608Z,39.86
2023-06-11T00:48:22.579Z,40.27
2023-06-11T00:50:53.730Z,40.14
2023-06-11T00:53:22.904Z,40.37
2023-06-11T00:55:49.830Z,40.06
2023-06-11T00:58:18.431Z,40.10
2023-06-11T01:00:50.516Z,40.27
2023-06-11T01:03:23.544Z,40.06
2023-06-11T01:06:02.597Z,40.07
2023-06-11T01:08:36.277Z,40.07
2023-06-11T01:11:03.919Z,40.18
2023-06-11T01:13:30.834Z,40.01
2023-06-11T01:16:08.212Z,40.06
2023-06-11T01:18:48.004Z,40.00
2023-06-11T01:21:22.728Z,40.22
2023-06-11T01:24:16.694Z,39.92
2023-06-11T01:27:23.690Z,39.97
2023-06-11T01:29:51.181Z,39.97
2023-06-11T01:32:24.997Z,40.01
2023-06-11T01:34:51.912Z,40.08
2023-06-11T01:37:18.758Z,40.09
2023-06-11T01:39:46.665Z,40.00
2023-06-11T01:42:13.532Z,40.05
2023-06-11T01:44:40.381Z,40.02
2023-06-11T01:47:07.277Z,39.99
2023-06-11T01:49:34.076Z,39.99
2023-06-11T01:52:00.934Z,39.88
2023-06-11T01:54:28.459Z,40.11
2023-06-11T01:56:55.391Z,40.05
2023-06-11T01:59:22.267Z,40.06
2023-06-11T02:01:54.302Z,39.96
2023-06-11T02:04:21.964Z,40.04
2023-06-11T02:06:50.206Z,39.96
2023-06-11T02:09:17.079Z,39.89
2023-06-11T02:11:43.906Z,40.03
2023-06-11T02:14:10.800Z,39.93
2023-06-11T02:16:37.627Z,39.99
2023-06-11T02:19:04.500Z,40.08
2023-06-11T02:21:31.582Z,39.98
2023-06-11T02:23:58.510Z,40.03
2023-06-11T02:26:25.457Z,40.10
2023-06-11T02:28:53.467Z,40.20
2023-06-11T02:31:20.309Z,40.27
2023-06-11T02:33:47.153Z,40.18
2023-06-11T02:36:13.947Z,40.22
2023-06-11T02:38:40.817Z,40.31
2023-06-11T02:41:07.610Z,40.25
2023-06-11T02:43:34.754Z,40.19
2023-06-11T02:46:01.632Z,40.40
2023-06-11T02:48:28.527Z,40.25
2023-06-11T02:50:55.365Z,40.14
2023-06-11T02:53:22.183Z,40.26
2023-06-11T02:55:49.064Z,40.36
2023-06-11T02:58:15.944Z,40.39
2023-06-11T03:00:42.783Z,40.28
2023-06-11T03:03:09.668Z,40.43
2023-06-11T03:05:36.504Z,40.35
2023-06-11T03:08:03.351Z,40.33
2023-06-11T03:10:30.154Z,40.41
2023-06-11T03:12:57.190Z,40.27
2023-06-11T03:15:24.331Z,40.50
2023-06-11T03:17:51.169Z,40.29
2023-06-11T03:20:17.982Z,40.30
2023-06-11T03:22:44.786Z,40.39
2023-06-11T03:25:14.177Z,40.26
2023-06-11T03:27:41.236Z,40.57
2023-06-11T03:30:08.777Z,40.52
2023-06-11T03:32:35.824Z,40.40
2023-06-11T03:35:02.691Z,40.56
2023-06-11T03:37:29.527Z,40.53
2023-06-11T03:39:56.317Z,40.43
2023-06-11T03:42:23.169Z,40.77
2023-06-11T03:44:50.808Z,40.56
2023-06-11T03:47:17.671Z,40.66
2023-06-11T03:49:44.867Z,40.57
2023-06-11T03:52:11.977Z,40.64
2023-06-11T03:54:38.841Z,40.68
2023-06-11T03:57:06.017Z,41.00
2023-06-11T03:59:32.848Z,40.97
2023-06-11T04:02:03.629Z,40.78
2023-06-11T04:04:30.611Z,41.00
2023-06-11T04:06:57.515Z,40.75
2023-06-11T04:09:24.397Z,41.11
2023-06-11T04:11:51.281Z,41.26
2023-06-11T04:14:18.859Z,41.11
2023-06-11T04:16:46.092Z,41.04
2023-06-11T04:19:13.680Z,41.01
2023-06-11T04:21:40.660Z,41.18
2023-06-11T04:24:09.630Z,41.23
2023-06-11T04:26:38.071Z,41.20
2023-06-11T04:29:05.017Z,41.22
2023-06-11T04:31:32.222Z,41.33
2023-06-11T04:34:04.098Z,41.21
2023-06-11T04:36:31.012Z,41.25
2023-06-11T04:39:02.640Z,41.20
2023-06-11T04:41:30.594Z,41.50
2023-06-11T04:43:57.498Z,41.36
2023-06-11T04:46:24.442Z,41.38
2023-06-11T04:48:51.586Z,41.67
2023-06-11T04:51:22.385Z,41.24
2023-06-11T04:53:53.259Z,41.46
2023-06-11T04:56:20.145Z,41.18
2023-06-11T04:58:46.969Z,41.49
2023-06-11T05:01:13.958Z,41.50
2023-06-11T05:03:40.800Z,41.41
2023-06-11T05:06:09.485Z,41.60
2023-06-11T05:08:36.325Z,41.61
2023-06-11T05:11:03.193Z,41.39
2023-06-11T05:13:30.145Z,41.29
2023-06-11T05:15:58.790Z,41.64
2023-06-11T05:18:29.875Z,41.37
2023-06-11T05:20:56.815Z,41.43
2023-06-11T05:23:29.660Z,41.58
2023-06-11T05:26:02.357Z,41.28
2023-06-11T05:28:29.285Z,41.37
2023-06-11T05:30:56.083Z,41.58
2023-06-11T05:33:23.720Z,41.50
2023-06-11T05:35:52.634Z,41.32
2023-06-11T05:38:20.299Z,41.06
2023-06-11T05:40:47.171Z,41.21
2023-06-11T05:43:14.005Z,41.07
2023-06-11T05:45:50.948Z,41.16
2023-06-11T05:48:18.425Z,41.34
2023-06-11T05:50:45.317Z,41.35
2023-06-11T05:53:12.131Z,40.86
2023-06-11T05:55:39.016Z,41.04
2023-06-11T05:58:06.873Z,41.17
2023-06-11T06:00:33.729Z,40.87
2023-06-11T06:03:02.671Z,41.06
2023-06-11T06:05:29.894Z,40.78
2023-06-11T06:07:57.373Z,40.76
2023-06-11T06:10:24.525Z,40.83
2023-06-11T06:12:51.380Z,40.61
2023-06-11T06:15:18.190Z,40.32
2023-06-11T06:17:45.198Z,40.24
2023-06-11T06:20:12.985Z,39.93
2023-06-11T06:22:40.106Z,40.08
2023-06-11T06:25:07.504Z,40.02
2023-06-11T06:27:34.339Z,39.79
2023-06-11T06:30:02.641Z,39.68
2023-06-11T06:32:29.862Z,39.65
2023-06-11T06:34:56.709Z,39.36
2023-06-11T06:37:25.192Z,39.23
2023-06-11T06:39:52.031Z,39.11
2023-06-11T06:42:18.872Z,38.85
2023-06-11T06:44:45.672Z,38.76
2023-06-11T06:47:12.516Z,38.58
2023-06-11T06:49:39.904Z,38.31
2023-06-11T06:52:08.127Z,38.32
2023-06-11T06:54:34.990Z,38.11
2023-06-11T06:57:01.829Z,37.92
2023-06-11T06:59:28.714Z,37.98
2023-06-11T07:01:55.726Z,37.53
2023-06-11T07:04:22.554Z,37.38
2023-06-11T07:06:49.376Z,37.48
2023-06-11T07:09:16.177Z,37.58
2023-06-11T07:11:43.008Z,37.40
2023-06-11T07:14:09.824Z,37.54
2023-06-11T07:16:36.800Z,36.92
2023-06-11T07:19:03.677Z,36.27
2023-06-11T07:21:30.600Z,35.25
2023-06-11T07:23:59.850Z,34.78
2023-06-11T07:26:26.671Z,34.13
2023-06-11T07:28:53.538Z,33.97
2023-06-11T07:31:20.526Z,34.38
2023-06-11T07:33:49.046Z,34.33
2023-06-11T07:36:17.094Z,34.49
2023-06-11T07:38:45.047Z,34.62
2023-06-11T07:41:13.969Z,35.10
2023-06-11T07:43:40.847Z,35.01
2023-06-11T07:46:07.782Z,34.84
2023-06-11T07:48:34.654Z,34.80
2023-06-11T07:51:01.774Z,34.88
2023-06-11T07:53:28.587Z,34.63
2023-06-11T07:55:58.301Z,34.74
2023-06-11T07:58:25.645Z,35.03
2023-06-11T08:00:52.499Z,34.73
2023-06-11T08:03:19.370Z,34.70
2023-06-11T08:05:46.480Z,34.77
2023-06-11T08:08:13.320Z,34.58
2023-06-11T08:10:40.118Z,34.66
2023-06-11T08:13:07.089Z,34.66
2023-06-11T08:15:34.441Z,35.02
2023-06-11T08:18:01.354Z,34.64
2023-06-11T08:20:28.238Z,34.49
2023-06-11T08:22:55.032Z,34.75
2023-06-11T08:25:21.929Z,34.37
2023-06-11T08:27:48.824Z,34.80
2023-06-11T08:30:15.708Z,34.61
2023-06-11T08:32:42.574Z,34.53
2023-06-11T08:35:09.700Z,34.45
2023-06-11T08:37:36.568Z,34.40
2023-06-11T08:40:05.043Z,34.24
2023-06-11T08:42:31.927Z,34.13
2023-06-11T08:44:58.790Z,34.11
2023-06-11T08:47:26.983Z,34.35
2023-06-11T08:49:56.530Z,34.34
2023-06-11T08:52:26.748Z,34.16
2023-06-11T08:54:54.172Z,34.29
2023-06-11T08:57:21.424Z,34.02
2023-06-11T08:59:48.238Z,33.64
2023-06-11T09:02:15.146Z,33.86
2023-06-11T09:04:44.908Z,33.71
2023-06-11T09:07:11.798Z,33.82
2023-06-11T09:09:38.651Z,33.49
2023-06-11T09:12:09.025Z,33.80
2023-06-11T09:14:35.845Z,32.97
2023-06-11T09:17:02.748Z,33.10
2023-06-11T09:19:29.646Z,33.16
2023-06-11T09:21:57.559Z,33.05
2023-06-11T09:24:26.252Z,32.56
2023-06-11T09:26:58.691Z,32.14
2023-06-11T09:29:27.966Z,32.38
2023-06-11T09:32:23.288Z,32.69
2023-06-11T09:34:56.750Z,32.21
2023-06-11T09:37:24.025Z,32.08
2023-06-11T09:39:51.490Z,32.26
2023-06-11T09:42:27.370Z,31.15
2023-06-11T09:45:00.127Z,30.88
2023-06-11T09:47:29.738Z,30.25
2023-06-11T09:49:59.006Z,30.25
2023-06-11T09:52:30.406Z,29.84
2023-06-11T09:54:57.648Z,29.11
2023-06-11T09:57:25.272Z,28.70
2023-06-11T09:59:52.442Z,28.91
2023-06-11T10:02:19.318Z,29.13
2023-06-11T10:04:46.674Z,28.65
2023-06-11T10:07:13.811Z,28.53
2023-06-11T10:09:42.440Z,28.27
2023-06-11T10:12:10.069Z,28.11
2023-06-11T10:14:38.363Z,27.81
2023-06-11T10:17:09.660Z,27.27
2023-06-11T10:19:39.733Z,27.25
2023-06-11T10:22:07.363Z,26.95
2023-06-11T10:24:34.310Z,26.97
2023-06-11T10:27:11.740Z,27.39
2023-06-11T10:29:47.673Z,26.83
2023-06-11T10:32:19.073Z,26.58
2023-06-11T10:34:49.008Z,26.63
2023-06-11T10:37:16.307Z,26.70
2023-06-11T10:39:52.705Z,26.49
2023-06-11T10:42:39.882Z,26.21
2023-06-11T10:45:09.706Z,26.07
2023-06-11T10:47:49.893Z,26.45
2023-06-11T10:50:25.022Z,25.88
2023-06-11T10:52:57.590Z,25.52
2023-06-11T10:55:27.358Z,25.70
2023-06-11T10:57:54.799Z,25.24
2023-06-11T11:00:22.672Z,25.23
2023-06-11T11:02:51.729Z,25.34
2023-06-11T11:05:18.771Z,25.30
2023-06-11T11:07:46.985Z,25.26
2023-06-11T11:10:20.586Z,25.24
2023-06-11T11:12:48.590Z,25.39
2023-06-11T11:15:16.199Z,25.43
2023-06-11T11:17:46.893Z,25.48
2023-06-11T11:20:20.405Z,25.53
2023-06-11T11:22:55.677Z,25.33
2023-06-11T11:25:26.080Z,25.29
2023-06-11T11:27:52.911Z,24.78
2023-06-11T11:30:19.883Z,24.90
2023-06-11T11:32:47.177Z,25.11
2023-06-11T11:35:15.757Z,24.81
2023-06-11T11:37:42.668Z,25.32
2023-06-11T11:40:12.178Z,24.97
2023-06-11T11:42:53.372Z,24.96
2023-06-11T11:45:31.363Z,24.37
2023-06-11T11:48:00.430Z,24.41
2023-06-11T11:50:33.067Z,24.15
2023-06-11T11:53:15.981Z,24.06
2023-06-11T11:55:56.704Z,24.00
2023-06-11T11:58:38.392Z,23.65
2023-06-11T12:01:05.835Z,23.29
2023-06-11T12:03:32.976Z,23.05
2023-06-11T12:06:07.876Z,23.26
2023-06-11T12:08:36.664Z,23.47
2023-06-11T12:11:07.291Z,23.21
2023-06-11T12:13:34.750Z,23.07
2023-06-11T12:16:04.593Z,23.24
2023-06-11T12:18:33.477Z,22.86
2023-06-11T12:21:00.292Z,22.85
2023-06-11T12:23:27.167Z,22.52
2023-06-11T12:25:54.822Z,22.88
2023-06-11T12:28:21.882Z,22.79
2023-06-11T12:30:49.110Z,22.59
2023-06-11T12:33:16.866Z,22.73
2023-06-11T12:35:44.311Z,22.45
2023-06-11T12:38:11.585Z,22.53
2023-06-11T12:40:38.723Z,22.60
2023-06-11T12:43:05.679Z,22.68
2023-06-11T12:45:36.558Z,22.53
2023-06-11T12:48:03.843Z,22.40
2023-06-11T12:50:30.713Z,22.79
2023-06-11T12:52:57.885Z,22.61
2023-06-11T12:55:25.767Z,22.84
2023-06-11T12:57:52.915Z,22.47
2023-06-11T13:00:20.110Z,22.13
2023-06-11T13:02:47.209Z,22.51
2023-06-11T13:05:14.066Z,22.12
2023-06-11T13:07:41.103Z,22.38
2023-06-11T13:10:08.950Z,22.39
2023-06-11T13:12:36.165Z,22.05
2023-06-11T13:15:03.158Z,22.39
2023-06-11T13:17:30.090Z,22.35
2023-06-11T13:19:57.094Z,22.14
2023-06-11T13:22:23.950Z,21.84
2023-06-11T13:24:50.874Z,22.33
2023-06-11T13:27:17.749Z,21.85
2023-06-11T13:29:44.683Z,22.02
2023-06-11T13:32:11.489Z,21.51
2023-06-11T13:34:38.926Z,21.30
2023-06-11T13:37:06.196Z,21.10
2023-06-11T13:39:34.175Z,21.60
2023-06-11T13:42:01.622Z,21.31
2023-06-11T13:44:28.475Z,21.36
2023-06-11T13:46:55.464Z,20.85
2023-06-11T13:49:23.404Z,21.43
2023-06-11T13:51:51.802Z,21.21
2023-06-11T13:54:18.739Z,21.18
2023-06-11T13:56:48.636Z,20.64
2023-06-11T13:59:15.577Z,20.62
2023-06-11T14:01:43.196Z,20.63
2023-06-11T14:04:10.785Z,20.26
2023-06-11T14:06:37.959Z,20.35
2023-06-11T14:09:05.370Z,20.55
2023-06-11T14:11:32.433Z,20.73
2023-06-11T14:14:00.122Z,20.38
2023-06-11T14:16:27.926Z,20.33
2023-06-11T14:18:54.814Z,19.87
2023-06-11T14:21:21.668Z,19.66
2023-06-11T14:23:48.803Z,19.84
2023-06-11T14:26:15.965Z,19.79
2023-06-11T14:28:42.752Z,19.41
2023-06-11T14:31:09.644Z,20.23
2023-06-11T14:33:36.540Z,19.80
2023-06-11T14:36:06.104Z,19.69
2023-06-11T14:38:34.200Z,19.67
2023-06-11T14:41:01.185Z,19.64
2023-06-11T14:43:28.071Z,19.19
2023-06-11T14:45:54.931Z,19.41
2023-06-11T14:48:21.816Z,18.83
2023-06-11T14:50:48.654Z,18.81
2023-06-11T14:53:15.618Z,19.06
2023-06-11T14:55:43.743Z,19.03
2023-06-11T14:58:10.636Z,19.28
2023-06-11T15:00:37.543Z,19.38
2023-06-11T15:03:04.561Z,19.51
2023-06-11T15:05:31.551Z,19.29
2023-06-11T15:07:58.397Z,18.83
2023-06-11T15:10:25.421Z,18.98
2023-06-11T15:12:53.325Z,19.19
2023-06-11T15:15:20.157Z,19.05
2023-06-11T15:17:47.148Z,19.03
2023-06-11T15:20:14.556Z,19.43
2023-06-11T15:22:42.013Z,19.66
2023-06-11T15:25:12.256Z,19.18
2023-06-11T15:27:39.131Z,19.19
2023-06-11T15:30:07.408Z,19.26
2023-06-11T15:32:34.293Z,19.18
2023-06-11T15:35:01.206Z,19.34
2023-06-11T15:37:28.177Z,19.37
2023-06-11T15:39:54.994Z,19.06
2023-06-11T15:42:21.838Z,19.26
2023-06-11T15:44:51.245Z,19.29
2023-06-11T15:47:18.412Z,19.23
2023-06-11T15:49:45.453Z,19.06
2023-06-11T15:52:12.365Z,19.36
2023-06-11T15:54:39.249Z,19.17
2023-06-11T15:57:07.326Z,19.19
2023-06-11T15:59:34.951Z,19.02
2023-06-11T16:02:02.009Z,18.75
2023-06-11T16:04:32.479Z,18.98
2023-06-11T16:07:05.150Z,18.87
2023-06-11T16:09:33.222Z,19.25
2023-06-11T16:12:00.220Z,18.95
2023-06-11T16:14:27.062Z,18.82
2023-06-11T16:16:53.886Z,18.74
2023-06-11T16:19:20.806Z,18.56
2023-06-11T16:21:47.961Z,18.74
2023-06-11T16:24:14.914Z,18.88
2023-06-11T16:26:41.940Z,18.65
2023-06-11T16:29:09.089Z,18.95
2023-06-11T16:31:35.916Z,18.90
2023-06-11T16:34:02.861Z,19.12
2023-06-11T16:36:30.095Z,18.85
2023-06-11T16:39:06.157Z,18.89
2023-06-11T16:41:45.523Z,18.51
2023-06-11T16:44:12.461Z,18.39
2023-06-11T16:46:39.480Z,18.75
2023-06-11T16:49:06.630Z,18.19
2023-06-11T16:51:33.574Z,18.56
2023-06-11T16:54:00.434Z,17.84
2023-06-11T16:56:27.330Z,18.10
2023-06-11T16:58:56.007Z,18.52
2023-06-11T17:01:24.593Z,18.51
2023-06-11T17:03:51.573Z,17.99
2023-06-11T17:06:18.540Z,18.21
2023-06-11T17:08:45.523Z,18.37
2023-06-11T17:11:12.474Z,18.11
2023-06-11T17:13:39.377Z,18.10
2023-06-11T17:16:06.845Z,18.41
2023-06-11T17:18:37.017Z,18.33
2023-06-11T17:21:04.653Z,18.50
2023-06-11T17:23:31.551Z,18.16
2023-06-11T17:25:58.370Z,18.38
2023-06-11T17:28:25.307Z,18.58
2023-06-11T17:30:52.233Z,18.52
2023-06-11T17:33:20.711Z,18.29
2023-06-11T17:35:48.491Z,18.34
2023-06-11T17:38:15.449Z,17.91
2023-06-11T17:40:42.429Z,18.18
2023-06-11T17:43:09.259Z,17.99
2023-06-11T17:45:36.112Z,17.61
2023-06-11T17:48:03.119Z,17.73
2023-06-11T17:50:30.158Z,18.04
2023-06-11T17:52:57.292Z,17.92
2023-06-11T17:55:25.075Z,17.93
2023-06-11T17:57:51.917Z,17.67
2023-06-11T18:00:18.953Z,17.78
2023-06-11T18:02:46.427Z,17.99
2023-06-11T18:05:13.800Z,17.49
2023-06-11T18:07:45.944Z,17.68
2023-06-11T18:10:15.798Z,17.56
2023-06-11T18:12:43.990Z,17.94
2023-06-11T18:15:31.293Z,17.56
2023-06-11T18:18:00.038Z,17.65
2023-06-11T18:20:28.450Z,17.59
2023-06-11T18:22:55.349Z,17.97
2023-06-11T18:25:22.430Z,17.76
2023-06-11T18:27:49.341Z,17.89
2023-06-11T18:30:16.197Z,18.28
2023-06-11T18:32:43.214Z,18.06
2023-06-11T18:35:10.849Z,17.90
2023-06-11T18:37:37.718Z,18.34
2023-06-11T18:40:06.027Z,18.30
2023-06-11T18:42:32.848Z,18.33
2023-06-11T18:44:59.702Z,18.20
2023-06-11T18:47:26.690Z,18.55
2023-06-11T18:49:53.662Z,18.28
2023-06-11T18:52:20.509Z,18.30
2023-06-11T18:54:47.363Z,18.81
2023-06-11T18:57:19.122Z,19.39
2023-06-11T18:59:46.975Z,19.70
2023-06-11T19:02:13.826Z,19.77
2023-06-11T19:04:42.467Z,19.41
2023-06-11T19:07:09.611Z,19.75
2023-06-11T19:09:36.512Z,20.03
2023-06-11T19:12:03.517Z,19.68
2023-06-11T19:14:30.439Z,20.10
2023-06-11T19:16:57.354Z,20.16
2023-06-11T19:19:24.178Z,20.08
2023-06-11T19:21:51.090Z,20.61
2023-06-11T19:24:17.978Z,20.45
2023-06-11T19:26:44.970Z,20.68
2023-06-11T19:29:11.981Z,20.68
2023-06-11T19:31:39.463Z,20.75
2023-06-11T19:34:06.842Z,20.80
2023-06-11T19:36:33.731Z,20.78
2023-06-11T19:39:00.664Z,20.92
2023-06-11T19:41:29.644Z,21.26
2023-06-11T19:43:57.639Z,21.18
2023-06-11T19:46:27.920Z,21.41
2023-06-11T19:48:56.325Z,21.53
2023-06-11T19:51:23.167Z,21.37
2023-06-11T19:53:52.660Z,21.51
2023-06-11T19:56:20.817Z,21.84
2023-06-11T19:58:48.321Z,21.87
2023-06-11T20:01:16.480Z,22.01
2023-06-11T20:03:44.097Z,21.81
2023-06-11T20:06:11.317Z,22.11
2023-06-11T20:08:38.647Z,22.28
2023-06-11T20:11:12.233Z,22.23
2023-06-11T20:13:43.978Z,22.53
2023-06-11T20:16:12.086Z,22.41
2023-06-11T20:18:41.261Z,22.56
2023-06-11T20:21:09.078Z,22.77
2023-06-11T20:23:36.256Z,22.93
2023-06-11T20:26:03.638Z,22.76
2023-06-11T20:28:30.979Z,22.94
2023-06-11T20:30:58.237Z,23.35
2023-06-11T20:33:25.063Z,23.40
2023-06-11T20:35:52.008Z,23.66
2023-06-11T20:38:18.948Z,23.01
2023-06-11T20:40:46.393Z,23.53
2023-06-11T20:43:17.624Z,23.45
2023-06-11T20:45:54.528Z,23.70
2023-06-11T20:48:25.042Z,23.51
2023-06-11T20:50:52.049Z,23.75
2023-06-11T20:53:32.548Z,23.84
2023-06-11T20:56:00.635Z,23.48
2023-06-11T20:58:27.649Z,23.86
2023-06-11T21:00:54.620Z,23.99
2023-06-11T21:03:21.587Z,24.28
2023-06-11T21:05:51.057Z,24.15
2023-06-11T21:08:19.028Z,24.43
2023-06-11T21:10:46.894Z,24.41
2023-06-11T21:13:14.266Z,24.20
2023-06-11T21:15:41.106Z,24.27
2023-06-11T21:18:08.009Z,24.03
2023-06-11T21:20:35.782Z,24.48
2023-06-11T21:23:02.568Z,24.28
2023-06-11T21:25:29.351Z,24.62
2023-06-11T21:27:56.263Z,25.05
2023-06-11T21:30:23.114Z,24.64
2023-06-11T21:32:50.420Z,24.80
2023-06-11T21:35:17.528Z,25.04
2023-06-11T21:37:44.330Z,24.57
2023-06-11T21:40:13.029Z,24.65
2023-06-11T21:42:40.244Z,24.99
2023-06-11T21:45:07.488Z,24.93
2023-06-11T21:47:34.418Z,25.06
2023-06-11T21:50:01.261Z,24.72
2023-06-11T21:52:28.508Z,24.65
2023-06-11T21:54:58.281Z,24.54
2023-06-11T21:57:25.689Z,24.65
2023-06-11T21:59:52.695Z,24.44
2023-06-11T22:02:19.501Z,24.77
2023-06-11T22:04:46.274Z,24.87
2023-06-11T22:07:13.939Z,24.74
2023-06-11T22:09:41.527Z,24.98
2023-06-11T22:12:09.478Z,24.90
2023-06-11T22:14:36.530Z,25.16
2023-06-11T22:17:03.507Z,25.22
2023-06-11T22:19:32.389Z,24.89
2023-06-11T22:21:59.202Z,25.27
2023-06-11T22:24:26.046Z,25.34
2023-06-11T22:26:52.930Z,25.57
2023-06-11T22:29:20.021Z,25.58
2023-06-11T22:31:46.921Z,25.31
2023-06-11T22:34:13.744Z,25.57
2023-06-11T22:36:40.721Z,25.39
2023-06-11T22:39:07.589Z,25.66
2023-06-11T22:41:35.540Z,25.57
2023-06-11T22:44:02.350Z,25.37
2023-06-11T22:46:29.239Z,25.32
2023-06-11T22:48:56.825Z,25.64
2023-06-11T22:51:25.645Z,25.46
2023-06-11T22:53:53.265Z,25.73
2023-06-11T22:56:23.862Z,25.74
2023-06-11T22:58:50.836Z,25.68
2023-06-11T23:01:17.725Z,25.92
2023-06-11T23:03:44.648Z,26.06
2023-06-11T23:06:11.486Z,26.21
2023-06-11T23:08:41.449Z,26.26
2023-06-11T23:11:08.581Z,26.11
2023-06-11T23:13:35.408Z,26.20
2023-06-11T23:16:02.567Z,26.35
2023-06-11T23:18:31.121Z,26.60
2023-06-11T23:20:58.659Z,26.51
2023-06-11T23:23:26.297Z,26.56
2023-06-11T23:25:53.689Z,26.87
2023-06-11T23:28:23.309Z,26.87
2023-06-11T23:30:51.656Z,27.06
2023-06-11T23:33:18.695Z,26.99
2023-06-11T23:35:45.592Z,26.83
2023-06-11T23:38:12.496Z,27.20
2023-06-11T23:40:39.298Z,27.33
2023-06-11T23:43:06.367Z,27.46
2023-06-11T23:45:33.218Z,27.58
2023-06-11T23:48:00.292Z,27.76
2023-06-11T23:50:27.214Z,27.84
2023-06-11T23:52:54.188Z,28.10
2023-06-11T23:55:23.092Z,28.48
2023-06-11T23:58:18.103Z,28.07
